createdAt,value
2018-09-27T00:00:59.299Z,101856.68
2018-09-27T00:03:30.733Z,101863.83
2018-09-27T00:06:02.352Z,101861.78
2018-09-27T00:08:33.837Z,101865.48
2018-09-27T00:11:05.317Z,101865.95
2018-09-27T00:13:36.744Z,101863.06
2018-09-27T00:16:08.387Z,101860.94
2018-09-27T00:18:39.759Z,101857.78
2018-09-27T00:21:11.304Z,101848.81
2018-09-27T00:23:42.776Z,101852.98
2018-09-27T00:26:14.433Z,101854.34
2018-09-27T00:28:45.791Z,101849.19
2018-09-27T00:31:17.195Z,101848.52
2018-09-27T00:33:48.780Z,101848.73
2018-09-27T00:36:20.296Z,101842.73
2018-09-27T00:38:51.747Z,101834.01
2018-09-27T00:41:23.204Z,101836.27
2018-09-27T00:43:54.690Z,101838.30
2018-09-27T00:46:26.204Z,101829.63
2018-09-27T00:48:57.724Z,101825.38
2018-09-27T00:51:28.827Z,101814.66
2018-09-27T00:54:00.008Z,101821.50
2018-09-27T00:56:30.967Z,101830.61
2018-09-27T00:59:01.668Z,101827.03
2018-09-27T01:01:32.696Z,101830.56
2018-09-27T01:04:04.301Z,101830.14
2018-09-27T01:06:35.753Z,101833.50
2018-09-27T01:09:09.806Z,101826.83
2018-09-27T01:11:41.224Z,101830.98
2018-09-27T01:14:12.759Z,101827.33
2018-09-27T01:16:44.312Z,101824.61
2018-09-27T01:19:15.777Z,101816.45
2018-09-27T01:21:47.346Z,101808.28
2018-09-27T01:24:18.803Z,101811.55
2018-09-27T01:26:50.363Z,101804.27
2018-09-27T01:29:21.806Z,101800.97
2018-09-27T01:31:53.031Z,101811.13
2018-09-27T01:34:24.314Z,101805.13
2018-09-27T01:36:55.801Z,101806.92
2018-09-27T01:39:27.304Z,101802.11
2018-09-27T01:41:58.788Z,101804.54
2018-09-27T01:44:30.367Z,101811.34
2018-09-27T01:47:01.960Z,101804.20
2018-09-27T01:49:33.409Z,101812.28
2018-09-27T01:52:04.916Z,101815.94
2018-09-27T01:54:35.593Z,101810.66
2018-09-27T01:57:06.996Z,101812.36
2018-09-27T01:59:38.623Z,101811.13
2018-09-27T02:02:10.306Z,101819.17
2018-09-27T02:04:41.762Z,101812.66
2018-09-27T02:07:13.643Z,101816.09
2018-09-27T02:09:45.225Z,101813.72
2018-09-27T02:12:17.235Z,101815.42
2018-09-27T02:14:48.705Z,101808.62
2018-09-27T02:17:20.310Z,101808.14
2018-09-27T02:19:51.779Z,101810.49
2018-09-27T02:22:23.311Z,101809.64
2018-09-27T02:24:54.789Z,101803.39
2018-09-27T02:27:26.751Z,101798.83
2018-09-27T02:29:58.196Z,101801.25
2018-09-27T02:32:29.714Z,101803.68
2018-09-27T02:35:01.320Z,101811.55
2018-09-27T02:37:32.746Z,101807.55
2018-09-27T02:40:04.308Z,101810.91
2018-09-27T02:42:35.748Z,101813.08
2018-09-27T02:45:07.376Z,101804.91
2018-09-27T02:47:38.797Z,101817.59
2018-09-27T02:50:10.392Z,101817.89
2018-09-27T02:52:41.730Z,101810.91
2018-09-27T02:55:13.358Z,101811.34
2018-09-27T02:57:44.751Z,101811.72
2018-09-27T03:00:16.223Z,101815.08
2018-09-27T03:02:47.696Z,101807.27
2018-09-27T03:05:19.224Z,101810.20
2018-09-27T03:07:50.743Z,101806.63
2018-09-27T03:10:21.913Z,101812.58
2018-09-27T03:12:52.555Z,101809.64
2018-09-27T03:15:24.213Z,101812.36
2018-09-27T03:17:55.655Z,101809.13
2018-09-27T03:20:27.204Z,101807.42
2018-09-27T03:22:58.662Z,101807.94
2018-09-27T03:25:30.209Z,101803.85
2018-09-27T03:28:01.740Z,101796.54
2018-09-27T03:30:33.208Z,101788.21
2018-09-27T03:33:04.772Z,101789.57
2018-09-27T03:35:36.321Z,101787.66
2018-09-27T03:38:07.870Z,101783.14
2018-09-27T03:40:39.421Z,101780.42
2018-09-27T03:43:10.821Z,101785.22
2018-09-27T03:45:42.352Z,101780.42
2018-09-27T03:48:13.815Z,101773.23
2018-09-27T03:50:45.314Z,101768.73
2018-09-27T03:53:16.835Z,101781.70
2018-09-27T03:55:48.292Z,101776.13
2018-09-27T03:58:21.268Z,101773.66
2018-09-27T04:00:52.711Z,101770.59
2018-09-27T04:03:24.039Z,101772.30
2018-09-27T04:05:55.538Z,101767.36
2018-09-27T04:08:26.966Z,101765.02
2018-09-27T04:10:57.553Z,101763.79
2018-09-27T04:13:29.213Z,101766.30
2018-09-27T04:16:00.710Z,101767.73
2018-09-27T04:18:32.311Z,101765.22
2018-09-27T04:21:03.747Z,101760.97
2018-09-27T04:23:35.304Z,101746.44
2018-09-27T04:26:07.210Z,101757.61
2018-09-27T04:28:38.681Z,101753.62
2018-09-27T04:31:10.403Z,101756.68
2018-09-27T04:33:41.914Z,101758.12
2018-09-27T04:36:13.331Z,101750.39
2018-09-27T04:38:44.742Z,101751.11
2018-09-27T04:41:16.199Z,101743.79
2018-09-27T04:43:47.717Z,101746.21
2018-09-27T04:46:19.313Z,101742.98
2018-09-27T04:51:46.725Z,101748.22
2018-09-27T04:54:17.781Z,101748.28
2018-09-27T04:56:48.763Z,101751.22
2018-09-27T04:59:19.839Z,101752.88
2018-09-27T05:01:50.859Z,101751.14
2018-09-27T05:04:22.474Z,101762.88
2018-09-27T05:06:54.272Z,101758.69
2018-09-27T05:09:25.695Z,101757.91
2018-09-27T05:11:57.211Z,101753.02
2018-09-27T05:14:28.855Z,101755.73
2018-09-27T05:17:00.415Z,101760.54
2018-09-27T05:22:12.667Z,101765.27
2018-09-27T05:24:43.663Z,101765.22
2018-09-27T05:27:14.828Z,101763.98
2018-09-27T05:29:46.314Z,101756.16
2018-09-27T05:32:17.615Z,101757.17
2018-09-27T05:34:48.908Z,101759.17
2018-09-27T05:37:20.346Z,101762.03
2018-09-27T05:39:51.655Z,101762.88
2018-09-27T05:42:23.227Z,101763.26
2018-09-27T05:44:54.747Z,101770.07
2018-09-27T05:47:25.776Z,101766.28
2018-09-27T05:49:56.945Z,101761.73
2018-09-27T05:52:28.564Z,101769.70
2018-09-27T05:55:00.216Z,101777.72
2018-09-27T05:57:31.690Z,101779.39
2018-09-27T06:00:03.197Z,101780.11
2018-09-27T06:02:34.730Z,101788.75
2018-09-27T06:05:06.347Z,101783.61
2018-09-27T06:07:37.789Z,101790.78
2018-09-27T06:10:09.379Z,101789.42
2018-09-27T06:12:40.885Z,101788.62
2018-09-27T06:15:12.548Z,101790.83
2018-09-27T06:17:43.996Z,101795.55
2018-09-27T06:20:15.706Z,101793.55
2018-09-27T06:22:47.312Z,101790.06
2018-09-27T06:25:18.831Z,101797.41
2018-09-27T06:27:50.373Z,101794.98
2018-09-27T06:30:21.884Z,101800.13
2018-09-27T06:32:53.408Z,101796.05
2018-09-27T06:35:24.824Z,101800.00
2018-09-27T06:37:57.858Z,101793.41
2018-09-27T06:40:29.019Z,101800.20
2018-09-27T06:43:00.717Z,101802.77
2018-09-27T06:45:32.435Z,101802.84
2018-09-27T06:48:03.766Z,101797.39
2018-09-27T06:50:34.904Z,101809.95
2018-09-27T06:53:05.995Z,101809.57
2018-09-27T06:55:36.767Z,101806.34
2018-09-27T06:58:08.209Z,101813.22
2018-09-27T07:00:39.716Z,101819.39
2018-09-27T07:03:11.321Z,101818.80
2018-09-27T07:05:42.783Z,101816.66
2018-09-27T07:08:14.373Z,101809.64
2018-09-27T07:10:45.984Z,101813.98
2018-09-27T07:13:17.744Z,101816.06
2018-09-27T07:15:49.816Z,101801.38
2018-09-27T07:18:21.576Z,101814.77
2018-09-27T07:20:53.573Z,101812.39
2018-09-27T07:23:25.219Z,101812.73
2018-09-27T07:25:58.667Z,101810.72
2018-09-27T07:28:30.376Z,101810.08
2018-09-27T07:31:01.844Z,101810.28
2018-09-27T07:33:33.387Z,101809.27
2018-09-27T07:36:05.457Z,101810.49
2018-09-27T07:38:37.753Z,101809.84
2018-09-27T07:41:09.295Z,101814.98
2018-09-27T07:43:40.764Z,101804.73
2018-09-27T07:46:12.692Z,101804.94
2018-09-27T07:48:43.858Z,101806.00
2018-09-27T07:51:15.406Z,101800.75
2018-09-27T07:53:46.853Z,101799.29
2018-09-27T07:56:18.399Z,101799.48
2018-09-27T07:58:49.792Z,101802.22
2018-09-27T08:01:21.216Z,101794.41
2018-09-27T08:03:52.686Z,101796.63
2018-09-27T08:06:24.231Z,101791.11
2018-09-27T08:08:55.689Z,101783.44
2018-09-27T08:11:27.385Z,101793.69
2018-09-27T08:13:58.769Z,101789.43
2018-09-27T08:16:30.307Z,101781.31
2018-09-27T08:19:01.743Z,101774.44
2018-09-27T08:21:33.469Z,101780.30
2018-09-27T08:24:04.755Z,101772.42
2018-09-27T08:26:36.378Z,101773.97
2018-09-27T08:29:07.830Z,101765.08
2018-09-27T08:31:38.613Z,101766.77
2018-09-27T08:34:09.741Z,101763.91
2018-09-27T08:36:41.236Z,101763.06
2018-09-27T08:39:13.720Z,101767.17
2018-09-27T08:41:45.241Z,101765.02
2018-09-27T08:44:16.768Z,101765.70
2018-09-27T08:46:48.318Z,101752.70
2018-09-27T08:49:19.818Z,101764.83
2018-09-27T08:51:51.330Z,101766.38
2018-09-27T08:54:22.807Z,101767.38
2018-09-27T08:56:54.319Z,101757.19
2018-09-27T08:59:25.851Z,101762.84
2018-09-27T09:01:57.492Z,101756.53
2018-09-27T09:04:28.980Z,101759.45
2018-09-27T09:06:59.645Z,101762.02
2018-09-27T09:09:31.291Z,101758.83
2018-09-27T09:12:02.837Z,101750.14
2018-09-27T09:14:34.284Z,101746.90
2018-09-27T09:17:05.746Z,101737.73
2018-09-27T09:19:37.454Z,101738.24
2018-09-27T09:22:08.775Z,101740.99
2018-09-27T09:24:40.385Z,101739.69
2018-09-27T09:27:12.019Z,101739.69
2018-09-27T09:29:43.857Z,101739.31
2018-09-27T09:32:15.227Z,101732.81
2018-09-27T09:34:46.766Z,101732.02
2018-09-27T09:37:18.386Z,101717.36
2018-09-27T09:39:49.853Z,101719.45
2018-09-27T09:42:21.493Z,101711.27
2018-09-27T09:44:53.000Z,101709.03
2018-09-27T09:47:24.695Z,101706.11
2018-09-27T09:49:56.432Z,101711.95
2018-09-27T09:52:27.914Z,101705.28
2018-09-27T09:54:59.692Z,101697.44
2018-09-27T09:57:31.231Z,101697.80
2018-09-27T10:00:02.698Z,101692.38
2018-09-27T10:02:34.362Z,101689.64
2018-09-27T10:05:05.843Z,101687.48
2018-09-27T10:07:37.772Z,101691.39
2018-09-27T10:10:09.400Z,101686.64
2018-09-27T10:12:40.822Z,101676.77
2018-09-27T10:15:12.510Z,101677.09
2018-09-27T10:17:43.859Z,101676.77
2018-09-27T10:20:15.436Z,101669.77
2018-09-27T10:22:46.808Z,101660.92
2018-09-27T10:25:18.360Z,101660.41
2018-09-27T10:27:49.772Z,101658.20
2018-09-27T10:30:21.356Z,101639.23
2018-09-27T10:32:52.841Z,101646.77
2018-09-27T10:35:24.235Z,101642.73
2018-09-27T10:37:55.523Z,101642.22
2018-09-27T10:40:27.221Z,101643.43
2018-09-27T10:42:58.688Z,101640.14
2018-09-27T10:45:30.611Z,101633.84
2018-09-27T10:48:02.221Z,101637.08
2018-09-27T10:50:33.784Z,101639.44
2018-09-27T10:53:05.325Z,101634.30
2018-09-27T10:55:36.781Z,101634.16
2018-09-27T10:58:08.682Z,101622.61
2018-09-27T11:00:40.209Z,101623.35
2018-09-27T11:03:11.666Z,101621.10
2018-09-27T11:05:43.490Z,101615.83
2018-09-27T11:08:15.003Z,101613.44
2018-09-27T11:10:46.659Z,101609.63
2018-09-27T11:13:18.814Z,101611.36
2018-09-27T11:15:50.341Z,101603.50
2018-09-27T11:18:21.836Z,101603.84
2018-09-27T11:20:53.467Z,101597.34
2018-09-27T11:23:24.925Z,101596.63
2018-09-27T11:25:56.608Z,101593.58
2018-09-27T11:28:31.796Z,101590.16
2018-09-27T11:31:08.580Z,101577.55
2018-09-27T11:33:40.233Z,101578.38
2018-09-27T11:36:12.233Z,101580.97
2018-09-27T11:38:43.757Z,101575.85
2018-09-27T11:41:15.232Z,101570.25
2018-09-27T11:43:46.753Z,101565.80
2018-09-27T11:46:18.428Z,101554.55
2018-09-27T11:48:50.265Z,101557.61
2018-09-27T11:51:22.227Z,101553.89
2018-09-27T11:53:53.705Z,101551.48
2018-09-27T11:56:25.081Z,101548.58
2018-09-27T11:58:56.818Z,101544.16
2018-09-27T12:01:28.607Z,101537.67
2018-09-27T12:04:00.007Z,101536.30
2018-09-27T12:06:31.716Z,101533.24
2018-09-27T12:09:03.223Z,101527.78
2018-09-27T12:11:35.215Z,101522.19
2018-09-27T12:14:06.852Z,101513.82
2018-09-27T12:16:38.745Z,101511.09
2018-09-27T12:19:10.457Z,101506.11
2018-09-27T12:21:41.841Z,101499.15
2018-09-27T12:24:13.674Z,101494.55
2018-09-27T12:26:45.227Z,101484.48
2018-09-27T12:29:16.914Z,101479.20
2018-09-27T12:31:48.425Z,101477.70
2018-09-27T12:34:20.226Z,101474.23
2018-09-27T12:36:51.700Z,101466.23
2018-09-27T12:41:48.679Z,101459.94
2018-09-27T12:44:19.748Z,101463.03
2018-09-27T12:46:51.284Z,101449.20
2018-09-27T12:49:22.793Z,101449.69
2018-09-27T12:51:54.458Z,101430.27
2018-09-27T12:54:25.922Z,101440.02
2018-09-27T12:56:56.655Z,101435.23
2018-09-27T12:59:28.342Z,101431.48
2018-09-27T13:02:00.146Z,101425.50
2018-09-27T13:04:31.704Z,101416.98
2018-09-27T13:07:03.415Z,101411.38
2018-09-27T13:09:35.305Z,101412.87
2018-09-27T13:14:50.392Z,101408.41
2018-09-27T13:17:21.539Z,101411.84
2018-09-27T13:19:52.842Z,101403.84
2018-09-27T13:22:23.899Z,101398.39
2018-09-27T13:24:55.301Z,101390.75
2018-09-27T13:27:26.704Z,101392.44
2018-09-27T13:29:58.349Z,101388.32
2018-09-27T13:32:29.937Z,101375.38
2018-09-27T13:35:00.614Z,101373.02
2018-09-27T13:37:31.975Z,101370.11
2018-09-27T13:40:02.758Z,101360.56
2018-09-27T13:42:34.218Z,101359.50
2018-09-27T13:45:05.763Z,101362.59
2018-09-27T13:47:37.364Z,101343.66
2018-09-27T13:50:08.927Z,101347.75
2018-09-27T13:52:40.587Z,101347.42
2018-09-27T13:55:12.361Z,101348.59
2018-09-27T13:57:43.893Z,101342.63
2018-09-27T14:00:15.472Z,101339.23
2018-09-27T14:02:46.865Z,101338.05
2018-09-27T14:05:18.637Z,101325.95
2018-09-27T14:07:50.088Z,101330.80
2018-09-27T14:10:21.779Z,101317.69
2018-09-27T14:12:52.809Z,101313.95
2018-09-27T14:15:24.441Z,101317.20
2018-09-27T14:17:55.909Z,101311.90
2018-09-27T14:20:27.529Z,101303.05
2018-09-27T14:22:59.320Z,101295.20
2018-09-27T14:25:30.765Z,101287.03
2018-09-27T14:28:02.324Z,101278.64
2018-09-27T14:30:33.928Z,101282.76
2018-09-27T14:33:04.362Z,101285.64
2018-09-27T14:35:35.625Z,101279.86
2018-09-27T14:38:06.702Z,101275.07
2018-09-27T14:40:38.390Z,101275.59
2018-09-27T14:43:09.865Z,101269.10
2018-09-27T14:45:41.390Z,101261.77
2018-09-27T14:48:12.967Z,101257.02
2018-09-27T14:50:43.586Z,101250.20
2018-09-27T14:53:14.975Z,101252.59
2018-09-27T14:55:46.572Z,101244.41
2018-09-27T14:58:17.869Z,101248.84
2018-09-27T15:00:49.734Z,101245.44
2018-09-27T15:03:21.205Z,101242.22
2018-09-27T15:05:52.736Z,101241.02
2018-09-27T15:08:25.198Z,101236.92
2018-09-27T15:10:56.723Z,101231.80
2018-09-27T15:13:28.419Z,101228.76
2018-09-27T15:15:59.825Z,101225.70
2018-09-27T15:18:31.347Z,101222.45
2018-09-27T15:21:02.870Z,101225.71
2018-09-27T15:23:34.391Z,101219.41
2018-09-27T15:26:06.008Z,101215.65
2018-09-27T15:28:37.669Z,101214.45
2018-09-27T15:31:09.437Z,101209.01
2018-09-27T15:33:41.005Z,101204.58
2018-09-27T15:36:12.687Z,101196.73
2018-09-27T15:38:44.209Z,101194.70
2018-09-27T15:41:15.775Z,101190.95
2018-09-27T15:43:47.351Z,101180.39
2018-09-27T15:46:18.791Z,101180.03
2018-09-27T15:48:49.913Z,101182.59
2018-09-27T15:51:21.337Z,101177.48
2018-09-27T15:53:52.802Z,101175.77
2018-09-27T15:56:24.441Z,101172.19
2018-09-27T15:58:55.901Z,101160.59
2018-09-27T16:01:27.457Z,101158.57
2018-09-27T16:03:58.894Z,101150.03
2018-09-27T16:06:29.609Z,101146.30
2018-09-27T16:09:01.206Z,101141.50
2018-09-27T16:11:32.841Z,101132.66
2018-09-27T16:14:04.276Z,101129.94
2018-09-27T16:16:35.740Z,101125.14
2018-09-27T16:19:07.237Z,101124.13
2018-09-27T16:21:38.504Z,101119.53
2018-09-27T16:24:09.889Z,101114.56
2018-09-27T16:26:41.376Z,101112.89
2018-09-27T16:29:12.868Z,101107.27
2018-09-27T16:31:44.398Z,101112.36
2018-09-27T16:34:15.870Z,101106.73
2018-09-27T16:36:47.435Z,101098.91
2018-09-27T16:39:18.695Z,101101.47
2018-09-27T16:41:50.203Z,101097.20
2018-09-27T16:44:21.806Z,101096.52
2018-09-27T16:46:53.279Z,101088.48
2018-09-27T16:49:24.784Z,101090.38
2018-09-27T16:51:56.415Z,101081.86
2018-09-27T16:54:28.708Z,101083.91
2018-09-27T16:57:00.202Z,101081.68
2018-09-27T16:59:31.675Z,101078.11
2018-09-27T17:02:03.224Z,101072.30
2018-09-27T17:04:34.723Z,101072.13
2018-09-27T17:07:06.312Z,101059.02
2018-09-27T17:09:37.782Z,101067.69
2018-09-27T17:12:09.198Z,101051.84
2018-09-27T17:14:40.761Z,101054.23
2018-09-27T17:17:12.324Z,101045.02
2018-09-27T17:19:43.790Z,101044.01
2018-09-27T17:22:15.297Z,101043.69
2018-09-27T17:24:46.749Z,101044.01
2018-09-27T17:27:18.499Z,101037.00
2018-09-27T17:29:49.862Z,101034.63
2018-09-27T17:32:21.403Z,101041.80
2018-09-27T17:34:53.203Z,101033.10
2018-09-27T17:37:24.738Z,101038.75
2018-09-27T17:39:56.227Z,101033.63
2018-09-27T17:42:27.706Z,101034.14
2018-09-27T17:44:59.503Z,101039.75
2018-09-27T17:47:31.065Z,101034.98
2018-09-27T17:50:02.496Z,101039.08
2018-09-27T17:52:33.921Z,101036.52
2018-09-27T17:55:04.538Z,101037.02
2018-09-27T17:57:35.974Z,101038.39
2018-09-27T18:00:06.596Z,101032.94
2018-09-27T18:02:38.199Z,101031.41
2018-09-27T18:05:18.981Z,101030.04
2018-09-27T18:07:41.701Z,101032.96
2018-09-27T18:10:13.205Z,101024.95
2018-09-27T18:12:44.663Z,101026.47
2018-09-27T18:15:16.227Z,101024.26
2018-09-27T18:17:47.901Z,101023.58
2018-09-27T18:20:19.433Z,101026.81
2018-09-27T18:22:51.229Z,101022.92
2018-09-27T18:25:22.747Z,101025.98
2018-09-27T18:27:55.196Z,101012.20
2018-09-27T18:30:26.753Z,101019.50
2018-09-27T18:32:58.312Z,101023.26
2018-09-27T18:35:29.741Z,101020.89
2018-09-27T18:38:01.407Z,101017.98
2018-09-27T18:40:32.795Z,101010.66
2018-09-27T18:43:04.379Z,101013.89
2018-09-27T18:45:35.719Z,101009.97
2018-09-27T18:48:07.547Z,101004.34
2018-09-27T18:50:39.199Z,101008.59
2018-09-27T18:53:10.751Z,101003.00
2018-09-27T18:55:42.609Z,100999.25
2018-09-27T18:58:14.199Z,101001.13
2018-09-27T19:00:45.771Z,101007.59
2018-09-27T19:03:16.898Z,100992.77
2018-09-27T19:05:47.322Z,100999.75
2018-09-27T19:08:20.508Z,101002.14
2018-09-27T19:10:53.854Z,100999.58
2018-09-27T19:13:25.662Z,100999.75
2018-09-27T19:15:57.202Z,100999.42
2018-09-27T19:18:28.744Z,100998.73
2018-09-27T19:21:00.185Z,100992.61
2018-09-27T19:23:31.735Z,100988.84
2018-09-27T19:26:03.428Z,100993.29
2018-09-27T19:28:34.805Z,100987.48
2018-09-27T19:31:06.303Z,100986.28
2018-09-27T19:33:37.727Z,100983.39
2018-09-27T19:36:09.501Z,100974.56
2018-09-27T19:38:40.995Z,100975.91
2018-09-27T19:41:12.503Z,100973.87
2018-09-27T19:43:44.213Z,100966.70
2018-09-27T19:46:15.809Z,100962.13
2018-09-27T19:48:47.406Z,100956.84
2018-09-27T19:51:19.223Z,100953.76
2018-09-27T19:53:50.748Z,100957.50
2018-09-27T19:56:22.438Z,100957.33
2018-09-27T19:58:53.993Z,100952.39
2018-09-27T20:01:25.637Z,100949.67
2018-09-27T20:03:57.323Z,100943.89
2018-09-27T20:06:28.734Z,100945.25
2018-09-27T20:09:00.203Z,100943.05
2018-09-27T20:11:31.725Z,100944.59
2018-09-27T20:14:03.397Z,100938.98
2018-09-27T20:16:35.280Z,100948.51
2018-09-27T20:19:06.714Z,100948.02
2018-09-27T20:21:38.500Z,100940.17
2018-09-27T20:24:10.301Z,100943.25
2018-09-27T20:26:41.699Z,100946.66
2018-09-27T20:29:13.687Z,100940.84
2018-09-27T20:31:45.197Z,100941.02
2018-09-27T20:34:16.895Z,100941.02
2018-09-27T20:36:48.317Z,100940.00
2018-09-27T20:39:19.878Z,100944.56
2018-09-27T20:41:51.399Z,100943.56
2018-09-27T20:44:23.858Z,100946.60
2018-09-27T20:46:55.605Z,100942.88
2018-09-27T20:49:27.334Z,100947.29
2018-09-27T20:51:58.875Z,100938.79
2018-09-27T20:54:30.510Z,100934.02
2018-09-27T20:57:02.199Z,100932.81
2018-09-27T20:59:35.834Z,100928.75
2018-09-27T21:02:07.516Z,100919.38
2018-09-27T21:04:39.174Z,100918.86
2018-09-27T21:07:10.711Z,100912.41
2018-09-27T21:09:42.402Z,100912.73
2018-09-27T21:12:17.348Z,100916.65
2018-09-27T21:14:48.845Z,100916.65
2018-09-27T21:17:20.403Z,100920.40
2018-09-27T21:19:52.361Z,100917.36
2018-09-27T21:22:25.191Z,100903.20
2018-09-27T21:24:56.690Z,100906.78
2018-09-27T21:27:28.281Z,100907.80
2018-09-27T21:29:59.799Z,100902.88
2018-09-27T21:32:31.526Z,100897.27
2018-09-27T21:35:03.072Z,100896.25
2018-09-27T21:37:34.693Z,100896.73
2018-09-27T21:40:06.351Z,100899.14
2018-09-27T21:42:37.696Z,100898.13
2018-09-27T21:45:09.210Z,100893.84
2018-09-27T21:47:40.667Z,100895.40
2018-09-27T21:50:12.279Z,100890.11
2018-09-27T21:52:43.727Z,100892.84
2018-09-27T21:55:16.539Z,100880.07
2018-09-27T21:57:48.973Z,100896.41
2018-09-27T22:00:20.761Z,100889.09
2018-09-27T22:02:53.899Z,100889.28
2018-09-27T22:05:25.893Z,100887.72
2018-09-27T22:07:59.220Z,100886.20
2018-09-27T22:10:34.795Z,100886.36
2018-09-27T22:13:06.417Z,100890.47
2018-09-27T22:15:37.988Z,100881.45
2018-09-27T22:18:09.513Z,100883.16
2018-09-27T22:20:40.884Z,100874.65
2018-09-27T22:23:12.361Z,100878.22
2018-09-27T22:25:43.916Z,100876.52
2018-09-27T22:28:15.645Z,100871.07
2018-09-27T22:30:47.024Z,100870.72
2018-09-27T22:33:18.611Z,100865.11
2018-09-27T22:35:50.226Z,100861.22
2018-09-27T22:38:21.737Z,100855.59
2018-09-27T22:40:53.015Z,100858.98
2018-09-27T22:44:07.227Z,100863.08
2018-09-27T22:46:38.711Z,100861.36
2018-09-27T22:49:10.370Z,100860.86
2018-09-27T22:51:41.729Z,100860.52
2018-09-27T22:54:13.206Z,100858.15
2018-09-27T22:56:44.736Z,100844.85
2018-09-27T22:59:16.190Z,100849.28
2018-09-27T23:01:47.662Z,100846.22
2018-09-27T23:04:19.312Z,100853.02
2018-09-27T23:06:51.347Z,100844.20
2018-09-27T23:09:23.666Z,100845.20
2018-09-27T23:11:55.213Z,100838.05
2018-09-27T23:14:26.727Z,100834.64
2018-09-27T23:16:58.381Z,100831.25
2018-09-27T23:19:29.862Z,100831.59
2018-09-27T23:22:01.590Z,100835.85
2018-09-27T23:24:33.320Z,100831.25
2018-09-27T23:27:04.797Z,100828.36
2018-09-27T23:29:36.319Z,100828.19
2018-09-27T23:32:07.888Z,100825.30
2018-09-27T23:34:39.362Z,100823.09
2018-09-27T23:37:10.737Z,100823.44
2018-09-27T23:39:42.402Z,100824.97
2018-09-27T23:42:13.838Z,100827.36
2018-09-27T23:44:45.410Z,100826.31
2018-09-27T23:47:16.762Z,100823.59
2018-09-27T23:49:48.390Z,100825.12
2018-09-27T23:52:19.750Z,100815.96
2018-09-27T23:54:51.195Z,100803.19
2018-09-27T23:57:22.708Z,100812.06
2018-09-27T23:59:54.157Z,100804.56
